createdAt,value
2023-12-03T00:00:16.259Z,3.23
2023-12-03T00:02:44.019Z,3.63
2023-12-03T00:05:11.370Z,3.27
2023-12-03T00:07:38.960Z,3.27
2023-12-03T00:10:07.061Z,3.23
2023-12-03T00:12:34.676Z,3.70
2023-12-03T00:15:01.799Z,3.30
2023-12-03T00:17:29.172Z,3.33
2023-12-03T00:20:22.501Z,3.17
2023-12-03T00:23:02.917Z,3.27
2023-12-03T00:25:31.386Z,3.50
2023-12-03T00:27:58.694Z,3.57
2023-12-03T00:30:26.361Z,3.23
2023-12-03T00:32:55.608Z,3.20
2023-12-03T00:35:22.798Z,3.30
2023-12-03T00:37:50.324Z,3.27
2023-12-03T00:40:17.845Z,3.27
2023-12-03T00:42:45.237Z,3.67
2023-12-03T00:45:12.493Z,3.97
2023-12-03T00:47:43.437Z,3.53
2023-12-03T00:50:15.089Z,3.73
2023-12-03T00:52:42.333Z,3.87
2023-12-03T00:55:12.709Z,4.07
2023-12-03T01:00:08.588Z,3.67
2023-12-03T01:02:39.329Z,4.00
2023-12-03T01:05:06.819Z,3.40
2023-12-03T01:07:33.988Z,4.00
2023-12-03T01:10:02.277Z,3.17
2023-12-03T01:12:29.997Z,3.50
2023-12-03T01:14:57.137Z,4.17
2023-12-03T01:17:35.231Z,4.43
2023-12-03T01:20:03.055Z,3.60
2023-12-03T01:22:30.292Z,3.63
2023-12-03T01:24:57.635Z,3.47
2023-12-03T01:27:24.890Z,3.93
2023-12-03T01:29:52.656Z,4.00
2023-12-03T01:32:19.873Z,3.70
2023-12-03T01:34:47.297Z,4.40
2023-12-03T01:37:14.687Z,3.90
2023-12-03T01:39:45.133Z,4.03
2023-12-03T01:44:39.477Z,4.40
2023-12-03T01:47:06.804Z,4.17
2023-12-03T01:49:37.348Z,4.43
2023-12-03T01:52:04.994Z,4.20
2023-12-03T01:54:36.451Z,4.83
2023-12-03T01:57:06.421Z,3.87
2023-12-03T01:59:33.893Z,4.35
2023-12-03T02:02:01.334Z,4.03
2023-12-03T02:04:29.782Z,3.90
2023-12-03T02:07:08.980Z,5.00
2023-12-03T02:09:39.930Z,4.27
2023-12-03T02:12:07.237Z,3.83
2023-12-03T02:14:34.902Z,4.80
2023-12-03T02:17:02.247Z,4.90
2023-12-03T02:19:30.683Z,4.40
2023-12-03T02:21:57.880Z,3.90
2023-12-03T02:24:25.045Z,4.33
2023-12-03T02:26:52.182Z,4.43
2023-12-03T02:29:19.264Z,4.13
2023-12-03T02:31:46.482Z,3.90
2023-12-03T02:34:14.530Z,3.60
2023-12-03T02:36:41.946Z,3.73
2023-12-03T02:39:09.288Z,4.10
2023-12-03T02:41:36.515Z,4.77
2023-12-03T02:44:03.936Z,3.63
2023-12-03T02:46:31.109Z,3.40
2023-12-03T02:48:58.277Z,3.67
2023-12-03T02:51:25.532Z,3.53
2023-12-03T02:53:53.233Z,3.13
2023-12-03T02:56:20.482Z,4.43
2023-12-03T02:58:47.662Z,3.60
2023-12-03T03:01:14.900Z,3.37
2023-12-03T03:03:42.121Z,3.37
2023-12-03T03:06:09.569Z,3.20
2023-12-03T03:08:36.856Z,3.70
2023-12-03T03:11:03.953Z,3.73
2023-12-03T03:13:31.139Z,3.53
2023-12-03T03:15:58.266Z,3.20
2023-12-03T03:18:25.474Z,3.03
2023-12-03T03:20:53.011Z,3.13
2023-12-03T03:23:20.117Z,2.27
2023-12-03T03:25:47.403Z,1.90
2023-12-03T03:28:14.641Z,2.50
2023-12-03T03:30:41.947Z,2.40
2023-12-03T03:33:09.134Z,1.83
2023-12-03T03:35:36.451Z,2.00
2023-12-03T03:38:03.837Z,1.97
2023-12-03T03:40:31.096Z,2.00
2023-12-03T03:42:58.503Z,2.03
2023-12-03T03:45:25.682Z,2.27
2023-12-03T03:47:53.337Z,2.47
2023-12-03T03:50:20.636Z,2.30
2023-12-03T03:52:48.014Z,2.40
2023-12-03T03:55:15.192Z,2.13
2023-12-03T03:57:42.449Z,1.80
2023-12-03T04:00:10.413Z,1.80
2023-12-03T04:02:40.324Z,2.00
2023-12-03T04:05:09.387Z,1.97
2023-12-03T04:07:39.700Z,2.40
2023-12-03T04:10:07.300Z,2.28
2023-12-03T04:12:35.168Z,2.10
2023-12-03T04:15:02.568Z,1.67
2023-12-03T04:17:54.627Z,2.13
2023-12-03T04:20:27.206Z,1.83
2023-12-03T04:22:59.720Z,1.70
2023-12-03T04:25:27.631Z,1.80
2023-12-03T04:27:55.132Z,1.90
2023-12-03T04:30:22.415Z,2.30
2023-12-03T04:32:50.161Z,2.03
2023-12-03T04:35:17.825Z,1.90
2023-12-03T04:37:46.405Z,2.00
2023-12-03T04:40:13.817Z,2.00
2023-12-03T04:42:42.006Z,1.90
2023-12-03T04:45:09.852Z,2.17
2023-12-03T04:47:37.157Z,1.87
2023-12-03T04:50:07.730Z,2.00
2023-12-03T04:52:35.670Z,1.97
2023-12-03T04:55:05.363Z,2.07
2023-12-03T04:57:32.766Z,1.70
2023-12-03T05:00:00.025Z,1.50
2023-12-03T05:02:27.248Z,1.80
2023-12-03T05:04:54.437Z,1.97
2023-12-03T05:07:21.782Z,1.80
2023-12-03T05:09:49.090Z,1.80
2023-12-03T05:12:19.459Z,1.83
2023-12-03T05:14:46.751Z,1.63
2023-12-03T05:17:14.170Z,2.00
2023-12-03T05:19:43.774Z,2.00
2023-12-03T05:22:11.218Z,2.08
2023-12-03T05:24:38.653Z,2.07
2023-12-03T05:27:06.053Z,1.97
2023-12-03T05:29:34.475Z,1.90
2023-12-03T05:32:02.082Z,2.27
2023-12-03T05:34:29.376Z,1.80
2023-12-03T05:36:56.583Z,2.50
2023-12-03T05:39:24.017Z,2.33
2023-12-03T05:41:51.327Z,2.20
2023-12-03T05:44:18.543Z,2.30
2023-12-03T05:46:45.879Z,2.10
2023-12-03T05:49:13.308Z,2.63
2023-12-03T05:51:45.017Z,2.10
2023-12-03T05:54:12.679Z,1.97
2023-12-03T05:56:40.082Z,2.27
2023-12-03T05:59:07.970Z,2.47
2023-12-03T06:01:36.025Z,2.43
2023-12-03T06:04:07.772Z,2.47
2023-12-03T06:06:36.166Z,3.90
2023-12-03T06:09:05.850Z,2.00
2023-12-03T06:11:37.048Z,2.70
2023-12-03T06:14:05.802Z,2.63
2023-12-03T06:16:35.128Z,2.30
2023-12-03T06:19:02.470Z,3.03
2023-12-03T06:21:34.279Z,2.10
2023-12-03T06:24:01.558Z,2.93
2023-12-03T06:26:28.844Z,2.70
2023-12-03T06:28:58.467Z,2.50
2023-12-03T06:31:25.838Z,2.35
2023-12-03T06:33:53.518Z,2.40
2023-12-03T06:36:21.063Z,2.20
2023-12-03T06:38:48.194Z,2.50
2023-12-03T06:41:18.756Z,2.10
2023-12-03T06:46:13.396Z,1.80
2023-12-03T06:48:43.927Z,2.00
2023-12-03T06:51:11.826Z,1.90
2023-12-03T06:53:39.096Z,2.27
2023-12-03T06:56:11.424Z,2.03
2023-12-03T06:58:38.712Z,4.37
2023-12-03T07:01:06.100Z,1.90
2023-12-03T07:03:33.972Z,1.93
2023-12-03T07:06:01.538Z,2.50
2023-12-03T07:08:28.745Z,2.30
2023-12-03T07:10:56.774Z,2.20
2023-12-03T07:13:24.264Z,2.07
2023-12-03T07:15:52.328Z,2.30
2023-12-03T07:18:19.642Z,2.80
2023-12-03T07:20:46.989Z,2.00
2023-12-03T07:23:14.343Z,2.03
2023-12-03T07:25:41.602Z,2.63
2023-12-03T07:28:10.079Z,2.03
2023-12-03T07:30:37.476Z,2.27
2023-12-03T07:33:05.683Z,2.70
2023-12-03T07:35:35.836Z,2.13
2023-12-03T07:38:03.629Z,2.33
2023-12-03T07:40:30.909Z,2.30
2023-12-03T07:42:58.311Z,2.10
2023-12-03T07:45:25.596Z,2.33
2023-12-03T07:47:52.904Z,2.17
2023-12-03T07:50:20.164Z,2.67
2023-12-03T07:52:47.425Z,2.13
2023-12-03T07:55:16.106Z,3.10
2023-12-03T07:57:43.749Z,2.63
2023-12-03T08:00:11.628Z,2.77
2023-12-03T08:02:42.729Z,2.67
2023-12-03T08:05:10.348Z,2.10
2023-12-03T08:07:37.737Z,2.60
2023-12-03T08:10:08.893Z,3.17
2023-12-03T08:12:36.246Z,2.67
2023-12-03T08:15:04.092Z,2.30
2023-12-03T08:17:31.483Z,3.27
2023-12-03T08:19:58.732Z,2.57
2023-12-03T08:22:25.988Z,2.40
2023-12-03T08:24:54.095Z,2.67
2023-12-03T08:27:21.325Z,2.70
2023-12-03T08:29:48.604Z,2.37
2023-12-03T08:32:16.015Z,3.20
2023-12-03T08:34:43.448Z,2.67
2023-12-03T08:37:10.971Z,2.70
2023-12-03T08:39:38.356Z,3.10
2023-12-03T08:42:05.991Z,2.70
2023-12-03T08:44:36.982Z,3.23
2023-12-03T08:47:04.872Z,2.90
2023-12-03T08:49:32.472Z,2.90
2023-12-03T08:51:59.649Z,3.30
2023-12-03T08:54:26.814Z,2.73
2023-12-03T08:56:54.123Z,3.47
2023-12-03T08:59:24.445Z,3.03
2023-12-03T09:01:51.710Z,2.85
2023-12-03T09:04:19.705Z,3.37
2023-12-03T09:06:47.552Z,3.27
2023-12-03T09:09:15.059Z,3.10
2023-12-03T09:11:44.909Z,3.43
2023-12-03T09:14:12.081Z,2.83
2023-12-03T09:16:39.177Z,3.30
2023-12-03T09:19:06.454Z,4.37
2023-12-03T09:21:33.817Z,4.00
2023-12-03T09:24:01.041Z,3.57
2023-12-03T09:26:28.075Z,3.77
2023-12-03T09:28:55.316Z,3.03
2023-12-03T09:31:22.375Z,3.60
2023-12-03T09:33:49.541Z,3.43
2023-12-03T09:36:16.634Z,2.97
2023-12-03T09:38:43.947Z,3.77
2023-12-03T09:41:12.946Z,3.93
2023-12-03T09:43:40.530Z,4.03
2023-12-03T09:46:10.319Z,4.00
2023-12-03T09:48:38.284Z,4.07
2023-12-03T09:51:05.674Z,4.27
2023-12-03T09:53:34.298Z,4.77
2023-12-03T09:56:01.674Z,3.97
2023-12-03T09:58:28.778Z,4.93
2023-12-03T10:00:56.036Z,4.40
2023-12-03T10:03:23.322Z,4.13
2023-12-03T10:05:51.524Z,4.23
2023-12-03T10:08:18.657Z,4.30
2023-12-03T10:10:47.231Z,4.80
2023-12-03T10:13:24.233Z,4.70
2023-12-03T10:15:54.576Z,4.47
2023-12-03T10:18:42.750Z,4.53
2023-12-03T10:21:16.530Z,4.35
2023-12-03T10:23:45.655Z,4.28
2023-12-03T10:26:13.423Z,4.72
2023-12-03T10:28:41.367Z,4.90
2023-12-03T10:31:34.090Z,4.07
2023-12-03T10:34:01.742Z,4.38
2023-12-03T10:36:31.962Z,3.67
2023-12-03T10:38:59.133Z,3.70
2023-12-03T10:41:26.193Z,3.60
2023-12-03T10:43:53.475Z,3.38
2023-12-03T10:46:21.358Z,2.97
2023-12-03T10:48:48.723Z,2.97
2023-12-03T10:51:15.844Z,2.92
2023-12-03T10:53:43.001Z,3.03
2023-12-03T10:56:10.348Z,3.15
2023-12-03T10:58:39.019Z,2.78
2023-12-03T11:01:06.265Z,2.72
2023-12-03T11:03:54.385Z,2.88
2023-12-03T11:06:22.548Z,3.95
2023-12-03T11:08:52.678Z,3.03
2023-12-03T11:11:22.214Z,2.38
2023-12-03T11:13:59.593Z,2.70
2023-12-03T11:16:28.995Z,2.70
2023-12-03T11:19:10.992Z,2.60
2023-12-03T11:21:49.254Z,2.78
2023-12-03T11:24:42.951Z,2.88
2023-12-03T11:27:10.113Z,2.42
2023-12-03T11:29:50.864Z,2.75
2023-12-03T11:32:18.649Z,3.30
2023-12-03T11:34:46.742Z,2.83
2023-12-03T11:37:14.133Z,3.05
2023-12-03T11:39:44.628Z,3.33
2023-12-03T11:44:41.103Z,3.30
2023-12-03T11:47:10.294Z,2.72
2023-12-03T11:49:38.594Z,2.30
2023-12-03T11:52:06.758Z,2.15
2023-12-03T11:54:38.453Z,2.15
2023-12-03T11:57:16.050Z,2.13
2023-12-03T11:59:47.697Z,1.75
2023-12-03T12:02:18.195Z,1.48
2023-12-03T12:04:45.826Z,1.77
2023-12-03T12:07:20.335Z,1.83
2023-12-03T12:09:48.726Z,1.90
2023-12-03T12:16:31.628Z,1.52
2023-12-03T12:19:04.536Z,1.60
2023-12-03T12:21:32.539Z,1.52
2023-12-03T12:24:38.304Z,1.60
2023-12-03T12:27:08.491Z,1.40
2023-12-03T12:30:22.034Z,1.98
2023-12-03T12:32:59.457Z,1.90
2023-12-03T12:35:27.142Z,1.58
2023-12-03T12:38:02.059Z,1.40
2023-12-03T12:40:31.286Z,1.85
2023-12-03T12:43:12.372Z,1.30
2023-12-03T12:45:41.775Z,1.20
2023-12-03T12:48:25.523Z,1.60
2023-12-03T12:50:52.893Z,1.77
2023-12-03T12:53:20.721Z,1.55
2023-12-03T12:55:47.992Z,1.33
2023-12-03T12:58:15.327Z,1.50
2023-12-03T13:00:42.708Z,1.20
2023-12-03T13:03:10.004Z,1.50
2023-12-03T13:05:37.343Z,1.67
2023-12-03T13:08:05.059Z,1.08
2023-12-03T13:11:06.745Z,1.40
2023-12-03T13:13:34.058Z,1.20
2023-12-03T13:16:16.789Z,1.30
2023-12-03T13:18:55.215Z,1.40
2023-12-03T13:21:23.488Z,1.58
2023-12-03T13:23:50.679Z,1.33
2023-12-03T13:26:18.414Z,1.52
2023-12-03T13:28:47.424Z,1.30
2023-12-03T13:31:14.616Z,1.10
2023-12-03T13:33:41.940Z,1.50
2023-12-03T13:36:09.798Z,1.60
2023-12-03T13:38:36.989Z,1.80
2023-12-03T13:41:04.758Z,1.30
2023-12-03T13:43:31.826Z,1.80
2023-12-03T13:46:00.170Z,1.48
2023-12-03T13:48:27.795Z,1.60
2023-12-03T13:50:55.027Z,1.55
2023-12-03T13:53:22.382Z,1.60
2023-12-03T13:55:49.552Z,1.80
2023-12-03T13:58:16.650Z,1.95
2023-12-03T14:00:43.849Z,1.70
2023-12-03T14:03:11.050Z,1.50
2023-12-03T14:05:38.271Z,1.48
2023-12-03T14:08:05.402Z,1.10
2023-12-03T14:10:32.699Z,1.42
2023-12-03T14:12:59.821Z,1.70
2023-12-03T14:15:27.045Z,1.30
2023-12-03T14:17:54.745Z,1.48
2023-12-03T14:20:21.984Z,1.40
2023-12-03T14:22:49.103Z,1.50
2023-12-03T14:25:16.422Z,1.50
2023-12-03T14:27:46.570Z,1.25
2023-12-03T14:30:15.016Z,0.90
2023-12-03T14:32:42.191Z,1.38
2023-12-03T14:35:11.425Z,1.10
2023-12-03T14:37:39.183Z,1.08
2023-12-03T14:40:09.718Z,1.52
2023-12-03T14:45:11.522Z,1.38
2023-12-03T14:47:40.290Z,1.00
2023-12-03T14:50:13.884Z,1.20
2023-12-03T14:52:57.664Z,1.45
2023-12-03T14:55:28.123Z,1.73
2023-12-03T14:57:56.872Z,1.33
2023-12-03T15:00:24.323Z,1.75
2023-12-03T15:02:55.629Z,1.45
2023-12-03T15:05:23.001Z,1.20
2023-12-03T15:07:51.093Z,1.92
2023-12-03T15:10:35.593Z,1.40
2023-12-03T15:13:02.836Z,1.75
2023-12-03T15:15:32.320Z,1.13
2023-12-03T15:17:59.706Z,1.42
2023-12-03T15:20:26.938Z,1.25
2023-12-03T15:22:56.702Z,1.33
2023-12-03T15:25:23.920Z,1.27
2023-12-03T15:27:52.176Z,2.25
2023-12-03T15:30:22.347Z,1.90
2023-12-03T15:35:17.503Z,1.50
2023-12-03T15:37:45.388Z,1.35
2023-12-03T15:40:13.809Z,1.20
2023-12-03T15:42:41.802Z,1.30
2023-12-03T15:45:09.688Z,1.63
2023-12-03T15:47:40.598Z,1.27
2023-12-03T15:50:08.946Z,2.15
2023-12-03T15:52:36.443Z,1.17
2023-12-03T15:55:12.461Z,1.55
2023-12-03T15:57:47.133Z,1.85
2023-12-03T16:02:47.549Z,1.73
2023-12-03T16:05:14.934Z,1.60
2023-12-03T16:07:45.458Z,1.17
2023-12-03T16:10:15.868Z,1.27
2023-12-03T16:12:43.047Z,1.52
2023-12-03T16:15:10.528Z,1.08
2023-12-03T16:17:40.246Z,1.30
2023-12-03T16:20:11.250Z,1.20
2023-12-03T16:22:38.447Z,1.08
2023-12-03T16:25:05.966Z,1.55
2023-12-03T16:27:33.281Z,1.30
2023-12-03T16:30:00.743Z,1.10
2023-12-03T16:32:27.985Z,1.77
2023-12-03T16:34:57.074Z,1.23
2023-12-03T16:37:24.372Z,1.27
2023-12-03T16:39:51.796Z,1.40
2023-12-03T16:42:20.709Z,1.38
2023-12-03T16:44:48.731Z,1.60
2023-12-03T16:47:16.335Z,1.75
2023-12-03T16:49:45.549Z,1.58
2023-12-03T16:52:12.776Z,1.70
2023-12-03T16:54:41.008Z,1.80
2023-12-03T16:57:09.382Z,2.30
2023-12-03T16:59:36.513Z,1.75
2023-12-03T17:02:03.785Z,2.30
2023-12-03T17:04:30.891Z,1.80
2023-12-03T17:06:58.458Z,1.77
2023-12-03T17:09:25.615Z,1.60
2023-12-03T17:11:52.895Z,1.90
2023-12-03T17:14:21.015Z,1.60
2023-12-03T17:16:48.154Z,2.20
2023-12-03T17:19:15.400Z,1.90
2023-12-03T17:21:42.689Z,2.20
2023-12-03T17:24:10.658Z,2.38
2023-12-03T17:26:40.204Z,3.58
2023-12-03T17:29:11.601Z,2.80
2023-12-03T17:31:38.923Z,3.70
2023-12-03T17:34:07.020Z,3.78
2023-12-03T17:36:35.366Z,3.17
2023-12-03T17:39:04.968Z,3.00
2023-12-03T17:41:32.373Z,2.90
2023-12-03T17:43:59.467Z,3.15
2023-12-03T17:46:26.667Z,3.43
2023-12-03T17:48:54.214Z,2.97
2023-12-03T17:51:21.880Z,3.47
2023-12-03T17:53:49.092Z,3.45
2023-12-03T17:56:16.328Z,3.87
2023-12-03T17:58:43.431Z,3.42
2023-12-03T18:01:10.956Z,3.65
2023-12-03T18:03:38.672Z,3.50
2023-12-03T18:06:07.326Z,3.17
2023-12-03T18:08:37.703Z,2.90
2023-12-03T18:11:05.588Z,3.88
2023-12-03T18:13:33.001Z,3.37
2023-12-03T18:16:00.842Z,3.10
2023-12-03T18:18:28.198Z,3.50
2023-12-03T18:20:56.283Z,3.13
2023-12-03T18:23:24.455Z,3.57
2023-12-03T18:25:51.735Z,3.63
2023-12-03T18:28:19.970Z,3.37
2023-12-03T18:30:50.249Z,2.80
2023-12-03T18:33:20.808Z,3.60
2023-12-03T18:35:48.220Z,3.33
2023-12-03T18:38:16.858Z,3.10
2023-12-03T18:40:46.591Z,3.13
2023-12-03T18:43:13.950Z,3.22
2023-12-03T18:45:41.532Z,3.83
2023-12-03T18:48:08.756Z,3.17
2023-12-03T18:50:36.110Z,3.30
2023-12-03T18:53:05.196Z,2.63
2023-12-03T18:55:32.407Z,3.70
2023-12-03T18:57:59.753Z,3.65
2023-12-03T19:00:27.150Z,2.90
2023-12-03T19:02:54.284Z,3.47
2023-12-03T19:05:22.005Z,3.60
2023-12-03T19:07:50.880Z,3.17
2023-12-03T19:10:20.015Z,3.50
2023-12-03T19:12:53.645Z,4.13
2023-12-03T19:15:23.635Z,3.95
2023-12-03T19:17:50.772Z,4.23
2023-12-03T19:20:18.603Z,4.30
2023-12-03T19:22:45.692Z,3.80
2023-12-03T19:25:12.779Z,4.53
2023-12-03T19:27:39.997Z,4.38
2023-12-03T19:30:10.094Z,4.63
2023-12-03T19:32:38.442Z,4.78
2023-12-03T19:35:06.042Z,3.92
2023-12-03T19:37:33.159Z,4.40
2023-12-03T19:40:00.880Z,4.13
2023-12-03T19:42:46.806Z,4.20
2023-12-03T19:45:16.769Z,4.15
2023-12-03T19:47:44.192Z,4.20
2023-12-03T19:50:11.371Z,4.32
2023-12-03T19:53:03.678Z,4.15
2023-12-03T19:55:30.920Z,4.25
2023-12-03T19:57:58.336Z,4.30
2023-12-03T20:00:25.675Z,4.40
2023-12-03T20:02:53.031Z,4.00
2023-12-03T20:05:20.750Z,4.97
2023-12-03T20:07:47.901Z,4.50
2023-12-03T20:10:15.201Z,4.03
2023-12-03T20:12:42.472Z,4.22
2023-12-03T20:15:17.676Z,4.82
2023-12-03T20:17:52.142Z,4.68
2023-12-03T20:20:19.535Z,4.18
2023-12-03T20:22:47.432Z,4.32
2023-12-03T20:25:15.555Z,4.13
2023-12-03T20:27:42.783Z,4.30
2023-12-03T20:30:10.387Z,4.53
2023-12-03T20:32:37.997Z,4.10
2023-12-03T20:35:15.691Z,4.15
2023-12-03T20:37:43.410Z,4.20
2023-12-03T20:40:11.652Z,4.30
2023-12-03T20:42:39.021Z,3.90
2023-12-03T20:45:06.612Z,4.07
2023-12-03T20:47:33.870Z,4.65
2023-12-03T20:50:04.407Z,4.80
2023-12-03T20:52:31.587Z,4.65
2023-12-03T20:54:59.410Z,4.13
2023-12-03T20:57:31.068Z,5.20
2023-12-03T21:00:00.301Z,4.55
2023-12-03T21:02:27.830Z,4.70
2023-12-03T21:04:55.206Z,4.78
2023-12-03T21:07:22.494Z,5.60
2023-12-03T21:09:49.852Z,5.18
2023-12-03T21:12:17.070Z,5.32
2023-12-03T21:14:44.184Z,5.07
2023-12-03T21:17:11.296Z,5.50
2023-12-03T21:19:38.888Z,5.32
2023-12-03T21:22:06.080Z,4.80
2023-12-03T21:24:33.981Z,5.30
2023-12-03T21:27:01.644Z,5.10
2023-12-03T21:29:28.915Z,5.10
2023-12-03T21:31:56.008Z,5.10
2023-12-03T21:34:23.179Z,5.18
2023-12-03T21:36:52.754Z,4.45
2023-12-03T21:39:20.466Z,4.00
2023-12-03T21:41:50.911Z,4.38
2023-12-03T21:46:45.315Z,4.35
2023-12-03T21:49:12.562Z,4.40
2023-12-03T21:51:39.794Z,3.92
2023-12-03T21:54:06.933Z,3.55
2023-12-03T21:56:34.086Z,3.65
2023-12-03T21:59:01.410Z,4.15
2023-12-03T22:01:28.632Z,3.30
2023-12-03T22:03:57.341Z,3.40
2023-12-03T22:06:24.726Z,3.30
2023-12-03T22:08:52.351Z,3.00
2023-12-03T22:11:19.516Z,3.83
2023-12-03T22:13:46.795Z,2.67
2023-12-03T22:16:17.196Z,3.28
2023-12-03T22:21:12.090Z,3.40
2023-12-03T22:23:42.900Z,2.92
2023-12-03T22:26:10.273Z,2.80
2023-12-03T22:28:37.390Z,2.70
2023-12-03T22:31:09.203Z,2.53
2023-12-03T22:33:36.579Z,2.88
2023-12-03T22:36:04.089Z,3.20
2023-12-03T22:38:31.722Z,2.42
2023-12-03T22:40:59.875Z,2.97
2023-12-03T22:43:27.644Z,2.75
2023-12-03T22:45:54.949Z,2.40
2023-12-03T22:48:22.715Z,2.60
2023-12-03T22:50:50.048Z,2.17
2023-12-03T22:53:17.589Z,1.95
2023-12-03T22:55:45.878Z,2.03
2023-12-03T22:58:13.255Z,2.17
2023-12-03T23:00:41.927Z,2.42
2023-12-03T23:03:09.649Z,2.50
2023-12-03T23:05:43.067Z,2.25
2023-12-03T23:08:10.552Z,1.95
2023-12-03T23:10:37.728Z,2.47
2023-12-03T23:13:05.321Z,2.17
2023-12-03T23:15:32.794Z,2.80
2023-12-03T23:18:02.684Z,3.17
2023-12-03T23:20:35.366Z,2.47
2023-12-03T23:23:04.106Z,2.65
2023-12-03T23:25:31.422Z,3.00
2023-12-03T23:27:59.463Z,2.53
2023-12-03T23:30:28.967Z,2.83
2023-12-03T23:33:02.969Z,3.20
2023-12-03T23:35:30.826Z,3.22
2023-12-03T23:37:58.695Z,3.10
2023-12-03T23:40:25.935Z,2.70
2023-12-03T23:42:53.217Z,2.78
2023-12-03T23:45:20.398Z,3.03
2023-12-03T23:47:47.864Z,2.80
2023-12-03T23:50:15.260Z,2.80
2023-12-03T23:52:42.563Z,2.70
2023-12-03T23:55:10.027Z,3.00
2023-12-03T23:57:37.246Z,2.83
